RJBM(METAR)
06/28 22:00
METAR RJBM 281300Z VRB01KT 9999 FEW015 SCT030 BKN080 23/20 Q1013 RMK
1CU015 4CU030 6AC080 A2994=
戻る
トップページへ戻る
IMOC Co,.Ltd.